createdAt,value
2019-02-16T00:01:45.132Z,32.25
2019-02-16T00:04:12.181Z,34.60
2019-02-16T00:06:39.270Z,35.98
2019-02-16T00:09:06.345Z,29.37
2019-02-16T00:11:33.387Z,34.75
2019-02-16T00:14:00.439Z,32.38
2019-02-16T00:16:27.476Z,36.65
2019-02-16T00:18:54.543Z,29.35
2019-02-16T00:21:21.591Z,31.25
2019-02-16T00:23:48.615Z,28.90
2019-02-16T00:26:15.692Z,22.65
2019-02-16T00:28:42.716Z,20.43
2019-02-16T00:31:09.750Z,24.75
2019-02-16T00:33:36.808Z,21.57
2019-02-16T00:36:03.958Z,16.75
2019-02-16T00:38:31.022Z,17.87
2019-02-16T00:40:58.059Z,17.37
2019-02-16T00:43:25.121Z,21.62
2019-02-16T00:45:52.144Z,24.67
2019-02-16T00:48:19.207Z,27.65
2019-02-16T00:50:46.235Z,31.05
2019-02-16T00:53:13.319Z,26.82
2019-02-16T00:55:40.384Z,30.70
2019-02-16T00:58:07.431Z,25.80
2019-02-16T01:00:34.477Z,26.05
2019-02-16T01:03:01.519Z,29.37
2019-02-16T01:05:28.585Z,29.05
2019-02-16T01:07:55.594Z,33.00
2019-02-16T01:10:22.631Z,36.77
2019-02-16T01:12:49.658Z,33.73
2019-02-16T01:15:16.696Z,32.20
2019-02-16T01:17:43.729Z,36.08
2019-02-16T01:20:11.079Z,40.35
2019-02-16T01:22:38.207Z,35.17
2019-02-16T01:25:05.313Z,33.33
2019-02-16T01:27:32.373Z,33.25
2019-02-16T01:29:59.437Z,26.77
2019-02-16T01:32:26.495Z,17.35
2019-02-16T01:34:53.517Z,17.30
2019-02-16T01:37:20.663Z,16.82
2019-02-16T01:39:47.695Z,12.10
2019-02-16T01:42:14.723Z,13.90
2019-02-16T01:44:41.757Z,22.52
2019-02-16T01:47:08.774Z,11.83
2019-02-16T01:49:35.839Z,18.70
2019-02-16T01:52:02.902Z,13.15
2019-02-16T01:54:29.930Z,16.62
2019-02-16T01:56:57.018Z,19.25
2019-02-16T01:59:24.051Z,20.77
2019-02-16T02:01:51.118Z,26.62
2019-02-16T02:04:18.152Z,21.80
2019-02-16T02:06:45.218Z,17.75
2019-02-16T02:09:12.417Z,28.38
2019-02-16T02:11:39.501Z,23.70
2019-02-16T02:14:06.572Z,21.27
2019-02-16T02:16:33.602Z,29.52
2019-02-16T02:19:00.657Z,28.65
2019-02-16T02:21:27.720Z,36.83
2019-02-16T02:23:54.792Z,36.30
2019-02-16T02:26:21.834Z,47.08
2019-02-16T02:28:48.890Z,36.25
2019-02-16T02:31:15.911Z,41.70
2019-02-16T02:33:42.945Z,38.63
2019-02-16T02:36:10.005Z,32.63
2019-02-16T02:38:37.039Z,35.25
2019-02-16T02:41:04.093Z,38.10
2019-02-16T02:43:31.131Z,38.73
2019-02-16T02:45:58.174Z,38.55
2019-02-16T02:48:25.232Z,32.80
2019-02-16T02:50:52.251Z,40.33
2019-02-16T02:53:19.307Z,35.03
2019-02-16T02:55:46.387Z,34.50
2019-02-16T02:58:13.453Z,41.83
2019-02-16T03:00:40.502Z,44.27
2019-02-16T03:03:07.544Z,42.88
2019-02-16T03:05:34.572Z,40.52
2019-02-16T03:08:01.629Z,40.35
2019-02-16T03:10:28.678Z,51.00
2019-02-16T03:12:55.720Z,44.80
2019-02-16T03:15:22.781Z,47.43
2019-02-16T03:17:49.824Z,47.75
2019-02-16T03:20:16.863Z,45.90
2019-02-16T03:23:17.907Z,40.52
2019-02-16T03:25:48.961Z,41.60
2019-02-16T03:28:33.748Z,32.50
2019-02-16T03:31:54.652Z,33.02
2019-02-16T03:34:26.111Z,30.75
2019-02-16T03:37:35.402Z,27.22
2019-02-16T03:40:02.481Z,24.35
2019-02-16T03:42:29.541Z,22.35
2019-02-16T03:44:56.561Z,17.73
2019-02-16T03:47:23.616Z,16.20
2019-02-16T03:49:50.670Z,19.67
2019-02-16T03:52:17.704Z,23.42
2019-02-16T03:54:44.810Z,33.18
2019-02-16T03:57:11.843Z,41.63
2019-02-16T03:59:38.889Z,43.00
2019-02-16T04:02:05.933Z,49.42
2019-02-16T04:04:33.000Z,51.28
2019-02-16T04:07:00.098Z,44.15
2019-02-16T04:09:27.136Z,42.25
2019-02-16T04:11:54.180Z,43.42
2019-02-16T04:14:21.242Z,36.28
2019-02-16T04:16:48.288Z,36.60
2019-02-16T04:19:15.353Z,42.85
2019-02-16T04:21:42.390Z,37.85
2019-02-16T04:24:09.415Z,32.30
2019-02-16T04:26:36.467Z,34.30
2019-02-16T04:29:03.500Z,38.58
2019-02-16T04:31:30.552Z,33.20
2019-02-16T04:33:57.588Z,34.43
2019-02-16T04:36:24.643Z,36.17
2019-02-16T04:38:51.684Z,29.18
2019-02-16T04:41:18.738Z,26.10
2019-02-16T04:43:45.788Z,32.60
2019-02-16T04:46:12.833Z,26.68
2019-02-16T04:48:39.872Z,28.77
2019-02-16T04:51:06.917Z,37.55
2019-02-16T04:53:33.956Z,30.65
2019-02-16T04:56:00.991Z,33.48
2019-02-16T04:58:28.055Z,38.10
2019-02-16T05:00:55.095Z,33.83
2019-02-16T05:03:22.143Z,35.73
2019-02-16T05:05:49.183Z,32.48
2019-02-16T05:08:16.291Z,34.20
2019-02-16T05:10:43.355Z,33.15
2019-02-16T05:13:10.397Z,27.27
2019-02-16T05:15:37.443Z,47.20
2019-02-16T05:18:04.493Z,31.57
2019-02-16T05:20:31.505Z,35.08
2019-02-16T05:22:58.563Z,40.95
2019-02-16T05:25:25.621Z,33.60
2019-02-16T05:27:52.738Z,32.20
2019-02-16T05:30:19.937Z,35.30
2019-02-16T05:32:47.080Z,25.55
2019-02-16T05:35:14.205Z,27.87
2019-02-16T05:37:41.261Z,22.60
2019-02-16T05:40:09.339Z,28.80
2019-02-16T05:42:36.389Z,25.92
2019-02-16T05:45:03.585Z,32.45
2019-02-16T05:47:30.668Z,39.70
2019-02-16T05:49:57.722Z,42.98
2019-02-16T05:52:24.777Z,43.52
2019-02-16T05:54:51.849Z,33.65
2019-02-16T05:57:18.907Z,33.75
2019-02-16T05:59:45.931Z,37.28
2019-02-16T06:02:12.983Z,36.63
2019-02-16T06:04:40.282Z,40.65
2019-02-16T06:07:07.323Z,34.40
2019-02-16T06:09:34.395Z,50.67
2019-02-16T06:12:01.449Z,33.98
2019-02-16T06:14:28.514Z,44.38
2019-02-16T06:16:55.557Z,41.80
2019-02-16T06:19:22.617Z,47.05
2019-02-16T06:21:49.669Z,38.73
2019-02-16T06:24:16.695Z,31.10
2019-02-16T06:26:43.750Z,31.33
2019-02-16T06:29:10.812Z,36.55
2019-02-16T06:31:37.852Z,35.20
2019-02-16T06:34:04.880Z,42.60
2019-02-16T06:36:39.502Z,36.53
2019-02-16T06:39:06.564Z,29.32
2019-02-16T06:41:33.632Z,38.50
2019-02-16T06:44:00.675Z,49.83
2019-02-16T06:46:27.714Z,30.70
2019-02-16T06:48:54.750Z,34.55
2019-02-16T06:51:21.804Z,25.55
2019-02-16T06:53:48.854Z,26.95
2019-02-16T06:56:35.494Z,41.58
2019-02-16T06:59:02.531Z,39.33
2019-02-16T07:01:29.610Z,28.73
2019-02-16T07:03:56.650Z,32.03
2019-02-16T07:06:23.696Z,35.78
2019-02-16T07:08:50.757Z,26.93
2019-02-16T07:11:17.814Z,33.20
2019-02-16T07:13:44.852Z,27.82
2019-02-16T07:16:30.593Z,27.82
2019-02-16T07:19:01.603Z,24.82
2019-02-16T07:21:28.643Z,25.32
2019-02-16T07:23:55.701Z,29.05
2019-02-16T07:26:22.727Z,28.32
2019-02-16T07:28:49.789Z,27.52
2019-02-16T07:31:16.857Z,27.98
2019-02-16T07:33:43.887Z,25.37
2019-02-16T07:36:10.937Z,24.67
2019-02-16T07:38:38.010Z,26.62
2019-02-16T07:41:05.048Z,28.12
2019-02-16T07:43:42.629Z,30.37
2019-02-16T07:46:25.731Z,27.05
2019-02-16T07:48:59.263Z,26.60
2019-02-16T07:51:53.416Z,24.90
2019-02-16T07:54:35.189Z,22.15
2019-02-16T07:57:09.901Z,30.50
2019-02-16T07:59:56.538Z,35.75
2019-02-16T08:03:01.043Z,26.35
2019-02-16T08:05:53.560Z,17.17
2019-02-16T08:08:52.313Z,22.42
2019-02-16T08:11:44.011Z,25.40
2019-02-16T08:14:26.292Z,21.27
2019-02-16T08:17:12.933Z,21.27
2019-02-16T08:20:03.747Z,24.63
2019-02-16T08:23:02.672Z,31.82
2019-02-16T08:25:45.586Z,22.42
2019-02-16T08:28:26.464Z,25.43
2019-02-16T08:31:15.990Z,27.10
2019-02-16T08:34:01.298Z,25.50
2019-02-16T08:36:49.111Z,36.70
2019-02-16T08:39:34.292Z,23.75
2019-02-16T08:42:20.990Z,23.92
2019-02-16T08:45:06.548Z,27.22
2019-02-16T08:47:53.227Z,26.87
2019-02-16T08:50:38.430Z,25.15
2019-02-16T08:53:17.896Z,23.80
2019-02-16T08:55:54.179Z,25.68
2019-02-16T08:58:49.719Z,23.18
2019-02-16T09:01:35.033Z,25.55
2019-02-16T09:04:20.135Z,24.02
2019-02-16T09:07:09.831Z,26.40
2019-02-16T09:09:46.082Z,23.73
2019-02-16T09:12:35.502Z,24.65
2019-02-16T09:15:11.814Z,23.52
2019-02-16T09:17:56.462Z,25.57
2019-02-16T09:20:43.166Z,28.95
2019-02-16T09:23:28.280Z,24.37
2019-02-16T09:26:21.708Z,24.23
2019-02-16T09:28:59.231Z,20.43
2019-02-16T09:31:51.499Z,23.10
2019-02-16T09:34:40.927Z,26.57
2019-02-16T09:37:14.144Z,23.62
2019-02-16T09:39:51.156Z,18.57
2019-02-16T09:42:40.366Z,26.40
2019-02-16T09:45:18.779Z,20.20
2019-02-16T09:48:11.365Z,24.45
2019-02-16T09:50:44.628Z,24.15
2019-02-16T09:53:37.309Z,21.45
2019-02-16T09:56:14.449Z,21.65
2019-02-16T09:58:50.225Z,26.73
2019-02-16T10:01:24.638Z,21.73
2019-02-16T10:04:14.486Z,30.05
2019-02-16T10:06:59.859Z,17.75
2019-02-16T10:09:39.941Z,21.90
2019-02-16T10:12:26.611Z,23.30
2019-02-16T10:15:11.926Z,26.57
2019-02-16T10:17:57.563Z,17.80
2019-02-16T10:20:43.071Z,19.90
2019-02-16T10:23:28.823Z,15.10
2019-02-16T10:26:18.557Z,18.73
2019-02-16T10:28:53.177Z,18.80
2019-02-16T10:31:28.858Z,13.70
2019-02-16T10:34:13.854Z,13.35
2019-02-16T10:36:50.781Z,23.73
2019-02-16T10:39:36.603Z,19.23
2019-02-16T10:42:23.239Z,11.30
2019-02-16T10:44:58.581Z,19.27
2019-02-16T10:47:45.218Z,13.35
2019-02-16T10:50:31.869Z,12.00
2019-02-16T10:53:18.543Z,11.25
2019-02-16T10:56:05.184Z,12.03
2019-02-16T10:58:51.817Z,12.98
2019-02-16T11:01:38.489Z,13.45
2019-02-16T11:04:25.176Z,9.58
2019-02-16T11:07:11.789Z,16.03
2019-02-16T11:09:58.466Z,10.50
2019-02-16T11:12:45.118Z,14.13
2019-02-16T11:15:32.805Z,16.93
2019-02-16T11:18:19.494Z,12.40
2019-02-16T11:20:55.986Z,10.47
2019-02-16T11:23:42.625Z,13.58
2019-02-16T11:26:29.263Z,13.63
2019-02-16T11:29:11.571Z,10.80
2019-02-16T11:31:58.178Z,9.40
2019-02-16T11:34:44.804Z,10.90
2019-02-16T11:37:31.447Z,10.90
2019-02-16T11:40:04.982Z,13.17
2019-02-16T11:42:42.050Z,13.63
2019-02-16T11:45:28.674Z,15.77
2019-02-16T11:48:04.512Z,13.47
2019-02-16T11:50:38.019Z,9.37
2019-02-16T11:53:24.638Z,9.43
2019-02-16T11:56:11.249Z,7.23
2019-02-16T11:58:57.902Z,9.67
2019-02-16T12:01:44.571Z,7.30
2019-02-16T12:04:31.223Z,15.10
2019-02-16T12:07:17.842Z,14.13
2019-02-16T12:10:04.488Z,18.70
2019-02-16T12:12:51.121Z,12.20
2019-02-16T12:15:37.768Z,12.77
2019-02-16T12:18:24.510Z,14.00
2019-02-16T12:21:11.176Z,25.83
2019-02-16T12:23:57.796Z,11.90
2019-02-16T12:26:44.480Z,10.53
2019-02-16T12:29:31.112Z,12.57
2019-02-16T12:32:17.782Z,11.23
2019-02-16T12:35:06.092Z,13.10
2019-02-16T12:38:05.224Z,14.63
2019-02-16T12:41:04.338Z,9.97
2019-02-16T12:44:04.140Z,12.47
2019-02-16T12:46:50.762Z,11.57
2019-02-16T12:49:56.893Z,14.30
2019-02-16T12:52:43.541Z,13.07
2019-02-16T12:55:49.667Z,10.63
2019-02-16T12:58:36.300Z,10.90
2019-02-16T13:01:42.441Z,15.00
2019-02-16T13:04:29.080Z,12.10
2019-02-16T13:07:35.227Z,12.43
2019-02-16T13:10:21.862Z,18.13
2019-02-16T13:13:08.487Z,10.27
2019-02-16T13:15:55.155Z,14.83
2019-02-16T13:18:42.287Z,12.07
2019-02-16T13:21:36.803Z,14.00
2019-02-16T13:24:08.673Z,13.40
2019-02-16T13:26:55.287Z,15.30
2019-02-16T13:30:01.414Z,11.83
2019-02-16T13:32:48.070Z,12.10
2019-02-16T13:35:34.714Z,10.33
2019-02-16T13:38:21.359Z,10.97
2019-02-16T13:41:27.472Z,10.63
2019-02-16T13:44:14.095Z,13.20
2019-02-16T13:47:00.732Z,17.40
2019-02-16T13:49:46.892Z,10.40
2019-02-16T13:52:33.537Z,15.40
2019-02-16T13:55:11.162Z,15.03
2019-02-16T13:58:00.720Z,18.83
2019-02-16T14:00:33.590Z,13.23
2019-02-16T14:03:20.224Z,12.10
2019-02-16T14:06:06.884Z,11.90
2019-02-16T14:09:02.381Z,17.97
2019-02-16T14:11:54.914Z,16.00
2019-02-16T14:14:59.858Z,13.60
2019-02-16T14:17:34.343Z,12.40
2019-02-16T14:20:01.414Z,13.37
2019-02-16T14:22:28.517Z,11.00
2019-02-16T14:24:57.907Z,12.50
2019-02-16T14:27:24.942Z,17.13
2019-02-16T14:29:52.000Z,20.97
2019-02-16T14:32:19.055Z,11.33
2019-02-16T14:34:46.099Z,11.43
2019-02-16T14:37:31.148Z,14.93
2019-02-16T14:39:58.217Z,18.63
2019-02-16T14:42:25.251Z,15.07
2019-02-16T14:44:52.332Z,12.13
2019-02-16T14:47:19.399Z,12.67
2019-02-16T14:49:46.475Z,15.80
2019-02-16T14:52:13.563Z,11.87
2019-02-16T14:54:40.615Z,11.03
2019-02-16T14:57:07.665Z,12.77
2019-02-16T14:59:34.710Z,11.00
2019-02-16T15:02:01.781Z,8.90
2019-02-16T15:04:28.857Z,13.40
2019-02-16T15:06:55.897Z,15.53
2019-02-16T15:09:22.987Z,15.20
2019-02-16T15:11:50.081Z,13.60
2019-02-16T15:14:17.132Z,18.03
2019-02-16T15:16:44.181Z,17.53
2019-02-16T15:19:11.224Z,15.00
2019-02-16T15:21:38.300Z,15.70
2019-02-16T15:24:05.363Z,14.17
2019-02-16T15:26:32.454Z,15.53
2019-02-16T15:28:59.540Z,16.87
2019-02-16T15:31:26.641Z,13.43
2019-02-16T15:33:53.738Z,12.37
2019-02-16T15:36:23.973Z,14.90
2019-02-16T15:38:55.956Z,13.43
2019-02-16T15:41:23.021Z,16.20
2019-02-16T15:43:50.072Z,16.23
2019-02-16T15:46:17.166Z,14.43
2019-02-16T15:48:57.181Z,17.53
2019-02-16T15:51:24.296Z,17.23
2019-02-16T15:53:51.381Z,13.60
2019-02-16T15:56:18.483Z,12.70
2019-02-16T15:58:45.551Z,13.70
2019-02-16T16:01:12.622Z,16.27
2019-02-16T16:03:39.868Z,17.47
2019-02-16T16:06:06.955Z,13.33
2019-02-16T16:08:53.731Z,12.00
2019-02-16T16:11:40.417Z,10.80
2019-02-16T16:14:27.137Z,14.37
2019-02-16T16:17:13.813Z,15.37
2019-02-16T16:19:50.659Z,14.80
2019-02-16T16:22:28.663Z,19.23
2019-02-16T16:25:15.386Z,13.88
2019-02-16T16:28:02.087Z,19.23
2019-02-16T16:30:48.814Z,17.62
2019-02-16T16:33:35.469Z,14.05
2019-02-16T16:36:12.468Z,17.82
2019-02-16T16:38:59.144Z,16.90
2019-02-16T16:41:45.821Z,17.32
2019-02-16T16:44:32.502Z,13.68
2019-02-16T16:47:09.971Z,14.30
2019-02-16T16:50:02.729Z,12.78
2019-02-16T16:52:47.396Z,16.30
2019-02-16T16:55:22.084Z,21.42
2019-02-16T16:58:08.766Z,14.40
2019-02-16T17:00:57.131Z,14.68
2019-02-16T17:03:43.816Z,20.60
2019-02-16T17:06:26.003Z,17.52
2019-02-16T17:09:16.055Z,11.73
2019-02-16T17:11:58.667Z,15.50
2019-02-16T17:14:37.900Z,56.73
2019-02-16T17:17:27.657Z,36.45
2019-02-16T17:20:04.812Z,25.62
2019-02-16T17:22:51.480Z,27.32
2019-02-16T17:25:29.897Z,40.78
2019-02-16T17:28:14.980Z,27.42
2019-02-16T17:30:50.818Z,25.85
2019-02-16T17:33:49.847Z,26.93
2019-02-16T17:36:35.250Z,54.38
2019-02-16T17:39:11.145Z,50.17
2019-02-16T17:41:57.865Z,42.08
2019-02-16T17:44:44.546Z,39.10
2019-02-16T17:47:28.620Z,31.10
2019-02-16T17:50:14.192Z,32.48
2019-02-16T17:53:09.569Z,31.35
2019-02-16T17:55:55.186Z,33.35
2019-02-16T17:58:27.035Z,39.80
2019-02-16T18:01:13.764Z,33.23
2019-02-16T18:04:06.508Z,29.67
2019-02-16T18:06:42.195Z,38.17
2019-02-16T18:09:27.490Z,36.68
2019-02-16T18:12:20.788Z,32.78
2019-02-16T18:15:06.184Z,34.30
2019-02-16T18:18:06.058Z,44.83
2019-02-16T18:20:48.643Z,30.12
2019-02-16T18:23:35.338Z,31.33
2019-02-16T18:26:25.065Z,26.82
2019-02-16T18:29:10.103Z,27.62
2019-02-16T18:32:08.790Z,30.20
2019-02-16T18:34:45.291Z,27.45
2019-02-16T18:37:30.409Z,25.72
2019-02-16T18:40:10.047Z,39.63
2019-02-16T18:42:55.939Z,38.63
2019-02-16T18:45:55.247Z,32.05
2019-02-16T18:48:48.056Z,30.43
2019-02-16T18:51:27.703Z,33.88
2019-02-16T18:54:13.361Z,34.70
2019-02-16T18:56:53.233Z,33.90
2019-02-16T18:59:51.736Z,34.88
2019-02-16T19:02:44.185Z,34.25
2019-02-16T19:05:30.023Z,47.75
2019-02-16T19:08:15.355Z,33.45
2019-02-16T19:10:49.653Z,42.98
2019-02-16T19:13:36.472Z,41.45
2019-02-16T19:16:27.309Z,34.27
2019-02-16T19:19:23.192Z,32.78
2019-02-16T19:22:22.258Z,28.32
2019-02-16T19:25:04.642Z,34.15
2019-02-16T19:27:54.153Z,36.38
2019-02-16T19:30:30.316Z,36.83
2019-02-16T19:33:17.255Z,29.57
2019-02-16T19:36:05.590Z,30.97
2019-02-16T19:39:07.468Z,35.23
2019-02-16T19:41:55.361Z,34.65
2019-02-16T19:44:42.107Z,43.68
2019-02-16T19:47:27.487Z,55.40
2019-02-16T19:50:23.479Z,41.85
2019-02-16T19:52:59.187Z,48.80
2019-02-16T19:55:35.647Z,50.08
2019-02-16T19:58:21.114Z,62.95
2019-02-16T20:01:09.587Z,63.52
2019-02-16T20:03:59.946Z,72.60
2019-02-16T20:06:37.941Z,144.35
2019-02-16T20:09:18.843Z,115.12
2019-02-16T20:12:14.654Z,91.00
2019-02-16T20:15:07.277Z,78.55
2019-02-16T20:18:00.316Z,77.00
2019-02-16T20:20:47.360Z,69.20
2019-02-16T20:23:29.500Z,64.47
2019-02-16T20:26:03.797Z,57.75
2019-02-16T20:28:50.557Z,58.83
2019-02-16T20:31:45.453Z,60.92
2019-02-16T20:34:35.150Z,94.20
2019-02-16T20:37:21.891Z,102.72
2019-02-16T20:40:26.956Z,95.07
2019-02-16T20:43:12.393Z,69.05
2019-02-16T20:45:49.856Z,74.07
2019-02-16T20:48:58.576Z,66.37
2019-02-16T20:51:47.673Z,61.55
2019-02-16T20:54:34.605Z,56.73
2019-02-16T20:57:47.331Z,59.48
2019-02-16T21:00:23.921Z,53.38
2019-02-16T21:03:05.741Z,53.28
2019-02-16T21:05:51.732Z,52.30
2019-02-16T21:08:47.655Z,52.10
2019-02-16T21:11:28.275Z,55.05
2019-02-16T21:14:00.920Z,52.00
2019-02-16T21:16:44.615Z,53.20
2019-02-16T21:19:23.697Z,60.25
2019-02-16T21:22:08.793Z,48.98
2019-02-16T21:24:47.698Z,52.78
2019-02-16T21:27:39.231Z,54.42
2019-02-16T21:30:46.355Z,52.27
2019-02-16T21:33:39.053Z,56.00
2019-02-16T21:36:30.195Z,46.70
2019-02-16T21:39:21.803Z,46.77
2019-02-16T21:42:11.178Z,55.67
2019-02-16T21:44:58.212Z,44.27
2019-02-16T21:47:57.025Z,44.15
2019-02-16T21:50:40.563Z,39.92
2019-02-16T21:53:25.687Z,42.45
2019-02-16T21:56:01.400Z,41.92
2019-02-16T21:58:38.628Z,34.88
2019-02-16T22:01:30.962Z,30.35
2019-02-16T22:04:21.949Z,40.10
2019-02-16T22:07:14.666Z,42.80
2019-02-16T22:10:13.167Z,42.88
2019-02-16T22:13:01.592Z,49.58
2019-02-16T22:15:28.683Z,58.10
2019-02-16T22:17:56.307Z,58.35
2019-02-16T22:20:23.410Z,54.40
2019-02-16T22:22:50.518Z,57.43
2019-02-16T22:25:19.620Z,62.95
2019-02-16T22:27:46.612Z,41.28
2019-02-16T22:30:13.722Z,50.92
2019-02-16T22:32:40.807Z,52.10
2019-02-16T22:35:07.979Z,41.48
2019-02-16T22:37:35.070Z,46.58
2019-02-16T22:40:02.140Z,44.85
2019-02-16T22:42:29.294Z,43.42
2019-02-16T22:44:56.332Z,43.45
2019-02-16T22:47:23.407Z,36.45
2019-02-16T22:49:50.480Z,46.20
2019-02-16T22:52:17.524Z,44.40
2019-02-16T22:54:44.555Z,52.17
2019-02-16T22:57:11.610Z,52.10
2019-02-16T22:59:38.672Z,42.53
2019-02-16T23:02:05.830Z,40.80
2019-02-16T23:04:33.750Z,44.53
2019-02-16T23:07:00.798Z,45.10
2019-02-16T23:09:28.611Z,38.38
2019-02-16T23:11:55.727Z,33.90
2019-02-16T23:14:24.255Z,37.33
2019-02-16T23:16:51.439Z,39.75
2019-02-16T23:19:18.508Z,37.67
2019-02-16T23:21:45.519Z,34.08
2019-02-16T23:24:12.547Z,32.75
2019-02-16T23:26:39.586Z,34.65
2019-02-16T23:29:06.607Z,28.35
2019-02-16T23:31:33.645Z,38.65
2019-02-16T23:34:00.663Z,34.27
2019-02-16T23:36:27.694Z,35.55
2019-02-16T23:38:54.725Z,38.17
2019-02-16T23:41:21.746Z,37.55
2019-02-16T23:43:48.777Z,34.30
2019-02-16T23:46:15.816Z,30.40
2019-02-16T23:48:42.848Z,31.33
2019-02-16T23:51:09.916Z,29.07
2019-02-16T23:53:36.943Z,25.62
2019-02-16T23:56:03.983Z,31.15
2019-02-16T23:58:31.126Z,27.25
